Saturday, October 25, 2014
17:32 UTC
  |  Log In   |  Register Free
Airport Search:

Akron-Canton Regional Airport
(KCAK)

FAA data valid effective September 18, 2014 - November 13, 2014 (unless otherwise noted).

 
 
 
 
 
 
 
 
 
 
 
 
 
 

Current Aviation Weather for Akron-Canton Regional Airport (KCAK)

The most recent METAR observation for KCAK was updated at: 1711
METAR Summary (Translated METAR)
KCAK
251651Z 23014G20KT 10SM SCT035 SCT070 BKN200 18/10 A2983 RMK AO2 SLP101 T01780100
KAKR
251654Z AUTO 22014G17KT 10SM SCT038 19/11 A2982 RMK AO2 SLP097 T01890106
(7.4 nm NW from KCAK)
KPOV
251657Z AUTO 24008G16KT 10SM OVC037 18/08 A2982 RMK AO2 T01790079
(19.7 nm NE from KCAK)
TAF Summary (Translated TAF)
KCAK
251135Z 2512/2612 22008KT P6SM SCT035 BKN100 FM251700 23012G20KT P6SM BKN035 TEMPO 2517/2519 BKN028 FM252100 27010KT P6SM SCT030
  Airport Weather Conditions for KCAK

 Current Weather at CAK
64° F
Mostly Cloudy
Southwest winds at 16.1 mph
CAK NOAA Radar

Pressure: 29.83 in
Humidity: 60%
Wind: from the Southwest at 16.1 gusting to 23.0 MPH (14 gusting to 20 KT)
Dew Point: 50.0°F
Visibility: 10.00 mi


Airport Weather Forecast for KCAK

Translated METAR and TAF for KCAK
Translated METAR for KCAK (1727 UTC 25 October 2014)
found at http://aviationweather.gov/adds/metars/
 
METAR text: KCAK 251651Z 23014G20KT 10SM SCT035 SCT070 BKN200 18/10 A2983 RMK AO2 SLP101 T01780100
Conditions at: KCAK (AKRON , OH, US) observed 1651 UTC 25 October 2014
Temperature: 17.8°C (64°F)
Dewpoint: 10.0°C (50°F) [RH = 60%]
Pressure (altimeter): 29.83 inches Hg (1010.2 mb)
[Sea-level pressure: 1010.1 mb]
Winds: from the SW (230 degrees) at 16 MPH (14 knots; 7.3 m/s)
gusting to 23 MPH (20 knots; 10.4 m/s)
Visibility: 10 or more miles (16+ km)
Ceiling: 20000 feet AGL
Clouds: scattered clouds at 3500 feet AGL
scattered clouds at 7000 feet AGL
broken clouds at 20000 feet AGL
Weather: no significant weather observed at this time
Translated TAF for KCAK
Forecast for: KCAK (AKRON , OH, US)
TAF Text: KCAK 251724Z 2518/2618 23010G20KT P6SM BKN070
Forecast period: 1800 to 1900 UTC 25 October 2014
Forecast type: FROM: standard forecast or significant change
Winds: from the SW (230 degrees) at 12 MPH (10 knots; 5.2 m/s)
gusting to 23 MPH (20 knots; 10.4 m/s)
Visibility: 6 or more miles (10+ km)
Ceiling: 7000 feet AGL
Clouds: broken clouds at 7000 feet AGL
Weather: no significant weather forecast for this period
TAF Text: FM251900 26010G20KT P6SM SKC
Forecast period: 1900 UTC 25 October 2014 to 1500 UTC 26 October 2014
Forecast type: FROM: standard forecast or significant change
Winds: from the W (260 degrees) at 12 MPH (10 knots; 5.2 m/s)
gusting to 23 MPH (20 knots; 10.4 m/s)
Visibility: 6 or more miles (10+ km)
Clouds: clear skies
Weather: no significant weather forecast for this period
TAF Text: FM261500 29010G15KT P6SM SKC
Forecast period: 1500 to 1800 UTC 26 October 2014
Forecast type: FROM: standard forecast or significant change
Winds: from the WNW (290 degrees) at 12 MPH (10 knots; 5.2 m/s)
gusting to 17 MPH (15 knots; 7.8 m/s)
Visibility: 6 or more miles (10+ km)
Clouds: clear skies
Weather: no significant weather forecast for this period

Find All Airport Services Find A Hotel Find A Rental Car Find A Golf Course Find A Restaurant $100 Hamburger



FBO's on the Field
FBO Company Facility Photos Services Transportation Aviation Fuel Prices: Prices include tax
Catering Weather Repair Courtesy Rental Type 100LL JetA JetA+ MOGAS 8087
 
Avflight Akron-Canton

This FBO has not yet been rated
FS:
Last Updated: Oct-02
Login to update fuel prices
SS:
Contact Avflight Akron-CantonMore FBO Information
 
McKinley Air, Inc.

Currently rated 4.4 by 4 people
FS: Phillips 66
Last Updated: Oct-16
Login to update fuel prices
SS:
Contact McKinley Air, Inc.More FBO Information
 
Add another FBO Facility Photos Catering Weather Repair Courtesy Rental Type 100LL JetA JetA+ MOGAS 8087
Services Transportation Aviation Fuel Prices: Prices include tax


model-print
model-print
model-print
model-print